sensor_id;sensor_type;location;lat;lon;timestamp;pressure;altitude;pressure_sealevel;temperature;humidity
72118;BME280;59992;47.490;8.736;2022-07-29T00:01:16;96492.55;;;16.58;87.92
72118;BME280;59992;47.490;8.736;2022-07-29T00:04:04;96491.41;;;16.57;88.43
72118;BME280;59992;47.490;8.736;2022-07-29T00:06:53;96491.38;;;16.53;87.61
72118;BME280;59992;47.490;8.736;2022-07-29T00:09:42;96494.48;;;16.49;88.06
72118;BME280;59992;47.490;8.736;2022-07-29T00:12:30;96490.45;;;16.45;89.08
72118;BME280;59992;47.490;8.736;2022-07-29T00:15:19;96492.63;;;16.41;88.43
72118;BME280;59992;47.490;8.736;2022-07-29T00:18:08;96491.79;;;16.35;88.28
72118;BME280;59992;47.490;8.736;2022-07-29T00:20:56;96486.42;;;16.29;88.93
72118;BME280;59992;47.490;8.736;2022-07-29T00:23:45;96488.57;;;16.29;88.53
72118;BME280;59992;47.490;8.736;2022-07-29T00:26:34;96489.95;;;16.27;88.01
72118;BME280;59992;47.490;8.736;2022-07-29T00:29:22;96489.38;;;16.24;87.93
72118;BME280;59992;47.490;8.736;2022-07-29T00:32:11;96484.92;;;16.20;89.32
72118;BME280;59992;47.490;8.736;2022-07-29T00:34:59;96483.15;;;16.19;88.58
72118;BME280;59992;47.490;8.736;2022-07-29T00:38:06;96482.02;;;16.18;88.54
72118;BME280;59992;47.490;8.736;2022-07-29T00:40:54;96478.00;;;16.15;88.01
72118;BME280;59992;47.490;8.736;2022-07-29T00:43:43;96475.17;;;16.09;88.30
72118;BME280;59992;47.490;8.736;2022-07-29T00:46:31;96474.00;;;16.04;88.98
72118;BME280;59992;47.490;8.736;2022-07-29T00:49:20;96470.73;;;16.02;89.21
72118;BME280;59992;47.490;8.736;2022-07-29T00:52:10;96470.05;;;15.99;88.70
72118;BME280;59992;47.490;8.736;2022-07-29T00:54:59;96467.52;;;15.94;88.97
72118;BME280;59992;47.490;8.736;2022-07-29T00:57:47;96464.76;;;15.87;89.63
72118;BME280;59992;47.490;8.736;2022-07-29T01:00:36;96458.74;;;15.84;89.01
72118;BME280;59992;47.490;8.736;2022-07-29T01:03:25;96453.56;;;15.82;88.30
72118;BME280;59992;47.490;8.736;2022-07-29T01:06:13;96457.19;;;15.81;89.72
72118;BME280;59992;47.490;8.736;2022-07-29T01:09:03;96454.90;;;15.81;89.86
72118;BME280;59992;47.490;8.736;2022-07-29T01:11:51;96455.50;;;15.81;89.43
72118;BME280;59992;47.490;8.736;2022-07-29T01:14:41;96449.03;;;15.79;89.02
72118;BME280;59992;47.490;8.736;2022-07-29T01:17:33;96448.75;;;15.77;89.61
72118;BME280;59992;47.490;8.736;2022-07-29T01:20:29;96440.73;;;15.77;88.36
72118;BME280;59992;47.490;8.736;2022-07-29T01:23:51;96440.02;;;15.78;90.40
72118;BME280;59992;47.490;8.736;2022-07-29T01:26:47;96440.73;;;15.83;90.17
72118;BME280;59992;47.490;8.736;2022-07-29T01:29:41;96440.63;;;15.87;90.18
72118;BME280;59992;47.490;8.736;2022-07-29T01:32:35;96439.36;;;15.92;90.77
72118;BME280;59992;47.490;8.736;2022-07-29T01:35:26;96442.50;;;15.98;90.06
72118;BME280;59992;47.490;8.736;2022-07-29T01:38:21;96437.88;;;16.02;89.39
72118;BME280;59992;47.490;8.736;2022-07-29T01:41:14;96437.71;;;16.04;89.52
72118;BME280;59992;47.490;8.736;2022-07-29T01:44:11;96430.11;;;15.99;89.94
72118;BME280;59992;47.490;8.736;2022-07-29T01:47:07;96434.60;;;16.01;89.96
72118;BME280;59992;47.490;8.736;2022-07-29T01:50:00;96431.70;;;16.01;90.51
72118;BME280;59992;47.490;8.736;2022-07-29T01:52:54;96429.59;;;16.05;91.66
72118;BME280;59992;47.490;8.736;2022-07-29T01:55:45;96433.00;;;16.08;89.38
72118;BME280;59992;47.490;8.736;2022-07-29T01:58:35;96438.31;;;16.10;89.33
72118;BME280;59992;47.490;8.736;2022-07-29T02:01:27;96446.48;;;16.12;89.31
72118;BME280;59992;47.490;8.736;2022-07-29T02:04:19;96447.77;;;16.14;89.18
72118;BME280;59992;47.490;8.736;2022-07-29T02:07:12;96444.55;;;16.14;88.45
72118;BME280;59992;47.490;8.736;2022-07-29T02:10:03;96443.55;;;16.15;88.39
72118;BME280;59992;47.490;8.736;2022-07-29T02:12:54;96443.62;;;16.15;90.22
72118;BME280;59992;47.490;8.736;2022-07-29T02:15:45;96447.35;;;16.16;88.90
72118;BME280;59992;47.490;8.736;2022-07-29T02:18:34;96452.80;;;16.15;88.76
72118;BME280;59992;47.490;8.736;2022-07-29T02:21:25;96451.04;;;16.14;88.37
72118;BME280;59992;47.490;8.736;2022-07-29T02:24:16;96452.73;;;16.12;88.18
72118;BME280;59992;47.490;8.736;2022-07-29T02:27:07;96448.22;;;16.07;87.95
72118;BME280;59992;47.490;8.736;2022-07-29T02:29:58;96447.35;;;16.01;87.38
72118;BME280;59992;47.490;8.736;2022-07-29T02:32:49;96443.98;;;15.94;87.99
72118;BME280;59992;47.490;8.736;2022-07-29T02:35:40;96449.76;;;15.91;89.56
72118;BME280;59992;47.490;8.736;2022-07-29T02:38:31;96449.30;;;15.90;88.59
72118;BME280;59992;47.490;8.736;2022-07-29T02:41:44;96452.63;;;15.87;88.04
72118;BME280;59992;47.490;8.736;2022-07-29T02:44:34;96450.91;;;15.81;88.38
72118;BME280;59992;47.490;8.736;2022-07-29T02:47:31;96453.55;;;15.78;88.80
72118;BME280;59992;47.490;8.736;2022-07-29T02:50:29;96450.38;;;15.72;89.16
72118;BME280;59992;47.490;8.736;2022-07-29T02:53:23;96449.59;;;15.68;90.16
72118;BME280;59992;47.490;8.736;2022-07-29T02:56:15;96448.84;;;15.65;89.44
72118;BME280;59992;47.490;8.736;2022-07-29T02:59:09;96442.83;;;15.63;88.69
72118;BME280;59992;47.490;8.736;2022-07-29T03:01:59;96438.44;;;15.59;88.32
72118;BME280;59992;47.490;8.736;2022-07-29T03:04:49;96439.61;;;15.56;90.18
72118;BME280;59992;47.490;8.736;2022-07-29T03:07:40;96435.65;;;15.56;89.69
72118;BME280;59992;47.490;8.736;2022-07-29T03:10:31;96433.89;;;15.55;89.35
72118;BME280;59992;47.490;8.736;2022-07-29T03:13:21;96437.26;;;15.55;89.60
72118;BME280;59992;47.490;8.736;2022-07-29T03:16:11;96441.30;;;15.56;89.13
72118;BME280;59992;47.490;8.736;2022-07-29T03:19:01;96439.55;;;15.54;89.09
72118;BME280;59992;47.490;8.736;2022-07-29T03:21:50;96435.14;;;15.51;88.13
72118;BME280;59992;47.490;8.736;2022-07-29T03:24:38;96445.27;;;15.56;89.57
72118;BME280;59992;47.490;8.736;2022-07-29T03:27:27;96451.98;;;15.57;90.13
72118;BME280;59992;47.490;8.736;2022-07-29T03:30:16;96454.17;;;15.60;89.15
72118;BME280;59992;47.490;8.736;2022-07-29T03:33:05;96448.07;;;15.57;89.59
72118;BME280;59992;47.490;8.736;2022-07-29T03:35:53;96457.63;;;15.66;90.22
72118;BME280;59992;47.490;8.736;2022-07-29T03:38:43;96458.66;;;15.68;90.02
72118;BME280;59992;47.490;8.736;2022-07-29T03:41:34;96461.79;;;15.69;89.49
72118;BME280;59992;47.490;8.736;2022-07-29T03:44:25;96460.79;;;15.70;89.12
72118;BME280;59992;47.490;8.736;2022-07-29T03:47:16;96465.60;;;15.70;88.16
72118;BME280;59992;47.490;8.736;2022-07-29T03:50:08;96475.99;;;15.69;89.46
72118;BME280;59992;47.490;8.736;2022-07-29T03:52:58;96479.89;;;15.70;88.40
72118;BME280;59992;47.490;8.736;2022-07-29T03:55:50;96473.54;;;15.70;88.59
72118;BME280;59992;47.490;8.736;2022-07-29T03:58:40;96466.59;;;15.70;87.94
72118;BME280;59992;47.490;8.736;2022-07-29T04:01:30;96465.31;;;15.68;87.90
72118;BME280;59992;47.490;8.736;2022-07-29T04:04:22;96462.63;;;15.70;88.22
72118;BME280;59992;47.490;8.736;2022-07-29T04:07:13;96458.93;;;15.72;88.91
72118;BME280;59992;47.490;8.736;2022-07-29T04:10:02;96457.61;;;15.76;89.13
72118;BME280;59992;47.490;8.736;2022-07-29T04:12:51;96453.82;;;15.81;88.12
72118;BME280;59992;47.490;8.736;2022-07-29T04:15:40;96454.23;;;15.87;89.66
72118;BME280;59992;47.490;8.736;2022-07-29T04:18:29;96457.67;;;15.94;88.93
72118;BME280;59992;47.490;8.736;2022-07-29T04:21:17;96455.24;;;16.00;88.18
72118;BME280;59992;47.490;8.736;2022-07-29T04:24:07;96450.71;;;16.01;87.58
72118;BME280;59992;47.490;8.736;2022-07-29T04:26:56;96451.24;;;16.02;87.07
72118;BME280;59992;47.490;8.736;2022-07-29T04:29:45;96454.45;;;16.02;87.44
72118;BME280;59992;47.490;8.736;2022-07-29T04:32:33;96458.56;;;16.04;87.71
72118;BME280;59992;47.490;8.736;2022-07-29T04:35:21;96457.17;;;16.06;87.83
72118;BME280;59992;47.490;8.736;2022-07-29T04:38:10;96460.29;;;16.07;87.70
72118;BME280;59992;47.490;8.736;2022-07-29T04:40:59;96466.38;;;16.09;88.01
72118;BME280;59992;47.490;8.736;2022-07-29T04:43:47;96464.88;;;16.13;87.63
72118;BME280;59992;47.490;8.736;2022-07-29T04:46:36;96463.23;;;16.16;87.35
72118;BME280;59992;47.490;8.736;2022-07-29T04:49:24;96462.39;;;16.17;87.93
72118;BME280;59992;47.490;8.736;2022-07-29T04:52:13;96465.59;;;16.19;87.68
72118;BME280;59992;47.490;8.736;2022-07-29T04:55:01;96464.80;;;16.21;88.03
72118;BME280;59992;47.490;8.736;2022-07-29T04:57:50;96469.83;;;16.22;88.10
72118;BME280;59992;47.490;8.736;2022-07-29T05:00:39;96465.55;;;16.29;87.53
72118;BME280;59992;47.490;8.736;2022-07-29T05:03:28;96463.91;;;16.33;87.47
72118;BME280;59992;47.490;8.736;2022-07-29T05:06:16;96461.26;;;16.38;88.25
72118;BME280;59992;47.490;8.736;2022-07-29T05:09:05;96462.18;;;16.43;87.08
72118;BME280;59992;47.490;8.736;2022-07-29T05:11:53;96459.17;;;16.46;87.16
72118;BME280;59992;47.490;8.736;2022-07-29T05:14:42;96458.52;;;16.52;87.35
72118;BME280;59992;47.490;8.736;2022-07-29T05:17:30;96452.36;;;16.61;86.61
72118;BME280;59992;47.490;8.736;2022-07-29T05:20:19;96457.05;;;16.66;87.19
72118;BME280;59992;47.490;8.736;2022-07-29T05:23:14;96466.35;;;16.74;87.16
72118;BME280;59992;47.490;8.736;2022-07-29T05:26:04;96461.46;;;16.79;86.16
72118;BME280;59992;47.490;8.736;2022-07-29T05:28:53;96470.36;;;16.95;86.62
72118;BME280;59992;47.490;8.736;2022-07-29T05:31:42;96471.32;;;17.03;85.41
72118;BME280;59992;47.490;8.736;2022-07-29T05:34:31;96474.29;;;17.11;84.93
72118;BME280;59992;47.490;8.736;2022-07-29T05:37:20;96479.42;;;17.14;84.74
72118;BME280;59992;47.490;8.736;2022-07-29T05:40:09;96469.85;;;17.09;84.47
72118;BME280;59992;47.490;8.736;2022-07-29T05:42:58;96482.27;;;17.13;84.49
72118;BME280;59992;47.490;8.736;2022-07-29T05:45:46;96487.32;;;17.20;85.50
72118;BME280;59992;47.490;8.736;2022-07-29T05:48:35;96487.78;;;17.30;84.93
72118;BME280;59992;47.490;8.736;2022-07-29T05:51:23;96489.55;;;17.40;83.74
72118;BME280;59992;47.490;8.736;2022-07-29T05:54:12;96490.06;;;17.47;83.96
72118;BME280;59992;47.490;8.736;2022-07-29T05:57:01;96491.57;;;17.60;83.17
72118;BME280;59992;47.490;8.736;2022-07-29T05:59:50;96492.64;;;17.78;83.21
72118;BME280;59992;47.490;8.736;2022-07-29T06:02:39;96492.80;;;18.05;81.52
72118;BME280;59992;47.490;8.736;2022-07-29T06:05:27;96492.42;;;18.39;80.67
72118;BME280;59992;47.490;8.736;2022-07-29T06:08:16;96489.71;;;18.65;80.39
72118;BME280;59992;47.490;8.736;2022-07-29T06:11:05;96491.60;;;18.89;80.20
72118;BME280;59992;47.490;8.736;2022-07-29T06:13:54;96498.36;;;19.11;78.97
72118;BME280;59992;47.490;8.736;2022-07-29T06:16:42;96498.87;;;19.40;79.07
72118;BME280;59992;47.490;8.736;2022-07-29T06:19:30;96502.98;;;20.13;76.77
72118;BME280;59992;47.490;8.736;2022-07-29T06:22:19;96506.05;;;21.02;73.76
72118;BME280;59992;47.490;8.736;2022-07-29T06:25:08;96511.38;;;21.43;69.84
72118;BME280;59992;47.490;8.736;2022-07-29T06:27:56;96513.59;;;21.51;66.26
72118;BME280;59992;47.490;8.736;2022-07-29T06:30:45;96517.39;;;21.50;66.42
72118;BME280;59992;47.490;8.736;2022-07-29T06:33:33;96521.72;;;21.45;66.78
72118;BME280;59992;47.490;8.736;2022-07-29T06:36:21;96528.32;;;21.36;68.26
72118;BME280;59992;47.490;8.736;2022-07-29T06:39:10;96518.39;;;21.35;69.00
72118;BME280;59992;47.490;8.736;2022-07-29T06:41:58;96527.49;;;21.50;67.49
72118;BME280;59992;47.490;8.736;2022-07-29T06:44:47;96528.70;;;21.58;66.46
72118;BME280;59992;47.490;8.736;2022-07-29T06:47:36;96535.65;;;21.91;65.74
72118;BME280;59992;47.490;8.736;2022-07-29T06:50:25;96540.53;;;21.98;63.27
72118;BME280;59992;47.490;8.736;2022-07-29T06:53:14;96546.77;;;22.00;64.73
72118;BME280;59992;47.490;8.736;2022-07-29T06:56:06;96558.93;;;21.86;65.04
72118;BME280;59992;47.490;8.736;2022-07-29T06:58:56;96564.98;;;21.78;65.61
72118;BME280;59992;47.490;8.736;2022-07-29T07:01:45;96571.23;;;21.70;65.81
72118;BME280;59992;47.490;8.736;2022-07-29T07:04:33;96573.45;;;21.58;65.72
72118;BME280;59992;47.490;8.736;2022-07-29T07:07:22;96581.63;;;21.46;65.67
72118;BME280;59992;47.490;8.736;2022-07-29T07:10:11;96591.29;;;21.38;66.67
72118;BME280;59992;47.490;8.736;2022-07-29T07:13:02;96591.69;;;21.27;66.05
72118;BME280;59992;47.490;8.736;2022-07-29T07:15:50;96588.56;;;20.98;65.72
72118;BME280;59992;47.490;8.736;2022-07-29T07:18:40;96590.11;;;20.77;66.38
72118;BME280;59992;47.490;8.736;2022-07-29T07:21:28;96588.38;;;20.58;67.65
72118;BME280;59992;47.490;8.736;2022-07-29T07:24:17;96589.59;;;20.56;68.33
72118;BME280;59992;47.490;8.736;2022-07-29T07:27:06;96586.41;;;20.45;68.72
72118;BME280;59992;47.490;8.736;2022-07-29T07:29:57;96586.39;;;20.33;68.57
72118;BME280;59992;47.490;8.736;2022-07-29T07:32:45;96574.80;;;20.29;69.84
72118;BME280;59992;47.490;8.736;2022-07-29T07:35:34;96569.30;;;20.25;70.37
72118;BME280;59992;47.490;8.736;2022-07-29T07:38:22;96572.88;;;20.21;70.95
72118;BME280;59992;47.490;8.736;2022-07-29T07:41:11;96579.39;;;20.14;73.00
72118;BME280;59992;47.490;8.736;2022-07-29T07:43:59;96577.16;;;20.04;73.73
72118;BME280;59992;47.490;8.736;2022-07-29T07:46:48;96576.80;;;19.95;73.45
72118;BME280;59992;47.490;8.736;2022-07-29T07:49:36;96573.77;;;19.89;75.15
72118;BME280;59992;47.490;8.736;2022-07-29T07:52:25;96562.15;;;19.79;76.29
72118;BME280;59992;47.490;8.736;2022-07-29T07:55:14;96553.91;;;19.73;74.79
72118;BME280;59992;47.490;8.736;2022-07-29T07:58:02;96540.61;;;19.63;75.82
72118;BME280;59992;47.490;8.736;2022-07-29T08:00:51;96535.30;;;19.50;76.08
72118;BME280;59992;47.490;8.736;2022-07-29T08:03:40;96530.77;;;19.22;79.51
72118;BME280;59992;47.490;8.736;2022-07-29T08:06:29;96523.56;;;18.99;79.32
72118;BME280;59992;47.490;8.736;2022-07-29T08:09:17;96545.17;;;18.82;80.68
72118;BME280;59992;47.490;8.736;2022-07-29T08:12:07;96560.34;;;18.71;81.88
72118;BME280;59992;47.490;8.736;2022-07-29T08:14:55;96577.39;;;18.65;81.39
72118;BME280;59992;47.490;8.736;2022-07-29T08:17:44;96581.34;;;18.64;82.63
72118;BME280;59992;47.490;8.736;2022-07-29T08:20:33;96588.26;;;18.64;83.85
72118;BME280;59992;47.490;8.736;2022-07-29T08:23:23;96597.02;;;18.63;82.73
72118;BME280;59992;47.490;8.736;2022-07-29T08:26:12;96598.32;;;18.68;83.33
72118;BME280;59992;47.490;8.736;2022-07-29T08:29:01;96595.09;;;18.72;82.76
72118;BME280;59992;47.490;8.736;2022-07-29T08:31:50;96593.58;;;18.75;84.86
72118;BME280;59992;47.490;8.736;2022-07-29T08:34:39;96596.98;;;18.81;84.87
72118;BME280;59992;47.490;8.736;2022-07-29T08:37:27;96601.90;;;18.84;85.06
72118;BME280;59992;47.490;8.736;2022-07-29T08:40:16;96604.91;;;18.88;83.52
72118;BME280;59992;47.490;8.736;2022-07-29T08:43:08;96604.65;;;18.94;84.07
72118;BME280;59992;47.490;8.736;2022-07-29T08:45:56;96605.69;;;18.96;83.46
72118;BME280;59992;47.490;8.736;2022-07-29T08:48:45;96601.36;;;18.97;85.11
72118;BME280;59992;47.490;8.736;2022-07-29T08:51:34;96603.55;;;18.98;84.96
72118;BME280;59992;47.490;8.736;2022-07-29T08:54:24;96620.55;;;18.97;85.09
72118;BME280;59992;47.490;8.736;2022-07-29T08:57:14;96610.96;;;18.97;83.55
72118;BME280;59992;47.490;8.736;2022-07-29T09:00:06;96616.14;;;18.99;83.84
72118;BME280;59992;47.490;8.736;2022-07-29T09:02:58;96623.33;;;19.00;84.34
72118;BME280;59992;47.490;8.736;2022-07-29T09:05:47;96619.02;;;19.04;81.92
72118;BME280;59992;47.490;8.736;2022-07-29T09:08:36;96626.88;;;19.12;82.14
72118;BME280;59992;47.490;8.736;2022-07-29T09:11:24;96631.86;;;19.19;83.16
72118;BME280;59992;47.490;8.736;2022-07-29T09:14:13;96627.67;;;19.22;85.01
72118;BME280;59992;47.490;8.736;2022-07-29T09:17:02;96626.58;;;19.27;84.82
72118;BME280;59992;47.490;8.736;2022-07-29T09:19:50;96619.52;;;19.38;84.63
72118;BME280;59992;47.490;8.736;2022-07-29T09:22:40;96617.97;;;19.64;82.64
72118;BME280;59992;47.490;8.736;2022-07-29T09:25:35;96617.44;;;20.02;81.83
72118;BME280;59992;47.490;8.736;2022-07-29T09:28:24;96612.09;;;20.42;80.22
72118;BME280;59992;47.490;8.736;2022-07-29T09:31:12;96607.08;;;20.79;78.83
72118;BME280;59992;47.490;8.736;2022-07-29T09:34:01;96608.41;;;21.21;76.52
72118;BME280;59992;47.490;8.736;2022-07-29T09:36:51;96619.02;;;21.61;73.82
72118;BME280;59992;47.490;8.736;2022-07-29T09:39:40;96615.77;;;21.94;74.00
72118;BME280;59992;47.490;8.736;2022-07-29T09:42:33;96616.12;;;22.17;72.32
72118;BME280;59992;47.490;8.736;2022-07-29T09:45:29;96618.29;;;22.31;70.98
72118;BME280;59992;47.490;8.736;2022-07-29T09:48:20;96616.44;;;22.55;73.18
72118;BME280;59992;47.490;8.736;2022-07-29T09:51:17;96610.52;;;22.70;72.00
72118;BME280;59992;47.490;8.736;2022-07-29T09:54:24;96609.14;;;23.09;71.46
72118;BME280;59992;47.490;8.736;2022-07-29T09:57:24;96611.67;;;23.45;72.19
72118;BME280;59992;47.490;8.736;2022-07-29T10:00:15;96604.83;;;23.69;68.33
72118;BME280;59992;47.490;8.736;2022-07-29T10:03:05;96596.89;;;23.86;66.86
72118;BME280;59992;47.490;8.736;2022-07-29T10:06:09;96597.00;;;23.77;65.65
72118;BME280;59992;47.490;8.736;2022-07-29T10:09:08;96603.81;;;23.89;66.64
72118;BME280;59992;47.490;8.736;2022-07-29T10:12:08;96600.61;;;23.95;66.00
72118;BME280;59992;47.490;8.736;2022-07-29T10:14:58;96592.41;;;24.08;63.38
72118;BME280;59992;47.490;8.736;2022-07-29T10:17:50;96592.53;;;24.00;63.99
72118;BME280;59992;47.490;8.736;2022-07-29T10:20:39;96591.34;;;24.23;63.39
72118;BME280;59992;47.490;8.736;2022-07-29T10:23:31;96586.61;;;24.40;61.48
72118;BME280;59992;47.490;8.736;2022-07-29T10:26:20;96580.54;;;24.64;61.82
72118;BME280;59992;47.490;8.736;2022-07-29T10:29:09;96573.34;;;24.81;60.03
72118;BME280;59992;47.490;8.736;2022-07-29T10:32:08;96567.99;;;24.96;59.71
72118;BME280;59992;47.490;8.736;2022-07-29T10:35:11;96567.80;;;25.19;58.86
72118;BME280;59992;47.490;8.736;2022-07-29T10:41:46;96562.73;;;25.56;56.22
72118;BME280;59992;47.490;8.736;2022-07-29T10:44:41;96566.58;;;25.63;52.16
72118;BME280;59992;47.490;8.736;2022-07-29T10:47:31;96566.43;;;25.45;53.62
72118;BME280;59992;47.490;8.736;2022-07-29T10:50:19;96562.44;;;25.49;55.36
72118;BME280;59992;47.490;8.736;2022-07-29T10:53:08;96559.14;;;25.55;53.94
72118;BME280;59992;47.490;8.736;2022-07-29T10:55:57;96563.31;;;25.63;54.14
72118;BME280;59992;47.490;8.736;2022-07-29T10:59:24;96560.16;;;25.63;54.62
72118;BME280;59992;47.490;8.736;2022-07-29T11:02:45;96554.71;;;25.73;54.10
72118;BME280;59992;47.490;8.736;2022-07-29T11:05:53;96557.54;;;25.90;54.58
72118;BME280;59992;47.490;8.736;2022-07-29T11:08:42;96555.38;;;26.07;53.44
72118;BME280;59992;47.490;8.736;2022-07-29T11:11:32;96558.38;;;26.11;53.44
72118;BME280;59992;47.490;8.736;2022-07-29T11:14:58;96557.94;;;26.15;53.51
72118;BME280;59992;47.490;8.736;2022-07-29T11:18:08;96557.81;;;26.14;55.34
72118;BME280;59992;47.490;8.736;2022-07-29T11:20:57;96556.88;;;25.90;55.05
72118;BME280;59992;47.490;8.736;2022-07-29T11:23:46;96558.96;;;25.86;52.45
72118;BME280;59992;47.490;8.736;2022-07-29T11:26:35;96554.34;;;25.87;52.44
72118;BME280;59992;47.490;8.736;2022-07-29T11:29:24;96555.59;;;25.66;51.51
72118;BME280;59992;47.490;8.736;2022-07-29T11:32:14;96554.86;;;25.62;53.45
72118;BME280;59992;47.490;8.736;2022-07-29T11:35:16;96556.51;;;25.63;53.38
72118;BME280;59992;47.490;8.736;2022-07-29T11:38:23;96548.52;;;25.66;52.96
72118;BME280;59992;47.490;8.736;2022-07-29T11:41:23;96544.63;;;25.61;54.25
72118;BME280;59992;47.490;8.736;2022-07-29T11:44:12;96544.39;;;25.43;52.73
72118;BME280;59992;47.490;8.736;2022-07-29T11:47:00;96546.27;;;25.40;54.62
72118;BME280;59992;47.490;8.736;2022-07-29T11:49:50;96548.79;;;25.47;54.69
72118;BME280;59992;47.490;8.736;2022-07-29T11:52:41;96545.44;;;25.56;54.99
72118;BME280;59992;47.490;8.736;2022-07-29T11:55:33;96542.23;;;25.63;53.11
72118;BME280;59992;47.490;8.736;2022-07-29T11:58:26;96543.64;;;25.72;52.96
72118;BME280;59992;47.490;8.736;2022-07-29T12:01:17;96545.27;;;25.79;52.14
72118;BME280;59992;47.490;8.736;2022-07-29T12:04:07;96545.42;;;25.90;51.41
72118;BME280;59992;47.490;8.736;2022-07-29T12:06:56;96546.06;;;25.88;51.28
72118;BME280;59992;47.490;8.736;2022-07-29T12:09:51;96543.27;;;26.05;52.09
72118;BME280;59992;47.490;8.736;2022-07-29T12:12:40;96540.06;;;26.02;49.66
72118;BME280;59992;47.490;8.736;2022-07-29T12:15:29;96537.27;;;26.17;50.73
72118;BME280;59992;47.490;8.736;2022-07-29T12:18:19;96538.44;;;26.18;49.91
72118;BME280;59992;47.490;8.736;2022-07-29T12:21:08;96532.74;;;26.20;49.30
72118;BME280;59992;47.490;8.736;2022-07-29T12:23:57;96535.14;;;26.33;47.98
72118;BME280;59992;47.490;8.736;2022-07-29T12:26:52;96532.20;;;26.45;46.63
72118;BME280;59992;47.490;8.736;2022-07-29T12:29:41;96531.80;;;26.53;48.83
72118;BME280;59992;47.490;8.736;2022-07-29T12:32:34;96536.23;;;26.59;48.31
72118;BME280;59992;47.490;8.736;2022-07-29T12:35:24;96539.75;;;26.61;49.75
72118;BME280;59992;47.490;8.736;2022-07-29T12:38:13;96540.61;;;26.48;47.18
72118;BME280;59992;47.490;8.736;2022-07-29T12:41:03;96542.28;;;26.44;48.96
72118;BME280;59992;47.490;8.736;2022-07-29T12:43:55;96544.91;;;26.30;49.37
72118;BME280;59992;47.490;8.736;2022-07-29T12:46:44;96549.49;;;26.27;49.72
72118;BME280;59992;47.490;8.736;2022-07-29T12:49:34;96549.17;;;26.26;49.35
72118;BME280;59992;47.490;8.736;2022-07-29T12:52:28;96549.40;;;26.32;50.96
72118;BME280;59992;47.490;8.736;2022-07-29T12:55:38;96553.21;;;26.30;52.19
72118;BME280;59992;47.490;8.736;2022-07-29T12:58:28;96547.71;;;26.25;49.02
72118;BME280;59992;47.490;8.736;2022-07-29T13:01:17;96559.00;;;26.31;51.30
72118;BME280;59992;47.490;8.736;2022-07-29T13:04:07;96560.80;;;26.29;52.66
72118;BME280;59992;47.490;8.736;2022-07-29T13:07:00;96561.18;;;26.17;48.31
72118;BME280;59992;47.490;8.736;2022-07-29T13:09:49;96551.95;;;26.10;49.08
72118;BME280;59992;47.490;8.736;2022-07-29T13:12:38;96557.60;;;26.14;51.10
72118;BME280;59992;47.490;8.736;2022-07-29T13:15:26;96555.98;;;25.99;50.96
72118;BME280;59992;47.490;8.736;2022-07-29T13:18:28;96554.40;;;25.96;50.57
72118;BME280;59992;47.490;8.736;2022-07-29T13:21:17;96559.33;;;25.93;52.40
72118;BME280;59992;47.490;8.736;2022-07-29T13:24:07;96557.15;;;25.76;51.93
72118;BME280;59992;47.490;8.736;2022-07-29T13:26:56;96556.70;;;25.65;51.47
72118;BME280;59992;47.490;8.736;2022-07-29T13:29:44;96560.27;;;25.37;50.90
72118;BME280;59992;47.490;8.736;2022-07-29T13:32:33;96575.67;;;25.15;54.55
72118;BME280;59992;47.490;8.736;2022-07-29T13:35:22;96586.79;;;24.78;58.87
72118;BME280;59992;47.490;8.736;2022-07-29T13:38:10;96618.02;;;24.21;63.98
72118;BME280;59992;47.490;8.736;2022-07-29T13:40:59;96645.38;;;23.42;69.45
72118;BME280;59992;47.490;8.736;2022-07-29T13:43:48;96680.65;;;22.74;71.21
72118;BME280;59992;47.490;8.736;2022-07-29T13:46:37;96678.98;;;21.79;72.95
72118;BME280;59992;47.490;8.736;2022-07-29T13:49:26;96654.28;;;21.02;75.96
72118;BME280;59992;47.490;8.736;2022-07-29T13:52:15;96642.00;;;20.40;79.45
72118;BME280;59992;47.490;8.736;2022-07-29T13:55:06;96642.48;;;20.24;79.44
72118;BME280;59992;47.490;8.736;2022-07-29T13:57:55;96637.94;;;20.06;81.37
72118;BME280;59992;47.490;8.736;2022-07-29T14:00:43;96633.79;;;19.93;81.94
72118;BME280;59992;47.490;8.736;2022-07-29T14:03:32;96637.55;;;19.86;80.54
72118;BME280;59992;47.490;8.736;2022-07-29T14:06:21;96640.83;;;19.73;81.12
72118;BME280;59992;47.490;8.736;2022-07-29T14:09:09;96639.39;;;19.51;80.81
72118;BME280;59992;47.490;8.736;2022-07-29T14:11:58;96636.63;;;19.31;82.78
72118;BME280;59992;47.490;8.736;2022-07-29T14:14:47;96631.58;;;19.17;82.99
72118;BME280;59992;47.490;8.736;2022-07-29T14:17:35;96628.33;;;18.91;82.25
72118;BME280;59992;47.490;8.736;2022-07-29T14:20:23;96635.92;;;18.83;83.80
72118;BME280;59992;47.490;8.736;2022-07-29T14:23:12;96639.74;;;18.67;82.68
72118;BME280;59992;47.490;8.736;2022-07-29T14:26:00;96640.15;;;18.61;81.88
72118;BME280;59992;47.490;8.736;2022-07-29T14:28:49;96649.70;;;18.55;84.84
72118;BME280;59992;47.490;8.736;2022-07-29T14:31:38;96646.92;;;18.50;83.61
72118;BME280;59992;47.490;8.736;2022-07-29T14:34:26;96658.56;;;18.53;83.30
72118;BME280;59992;47.490;8.736;2022-07-29T14:37:15;96667.89;;;18.55;84.89
72118;BME280;59992;47.490;8.736;2022-07-29T14:40:05;96672.95;;;18.54;84.98
72118;BME280;59992;47.490;8.736;2022-07-29T14:42:54;96685.04;;;18.61;84.45
72118;BME280;59992;47.490;8.736;2022-07-29T14:45:42;96694.09;;;18.61;84.11
72118;BME280;59992;47.490;8.736;2022-07-29T14:48:31;96696.66;;;18.59;85.29
72118;BME280;59992;47.490;8.736;2022-07-29T14:51:20;96697.69;;;18.57;85.22
72118;BME280;59992;47.490;8.736;2022-07-29T14:54:08;96698.05;;;18.59;85.09
72118;BME280;59992;47.490;8.736;2022-07-29T14:56:57;96698.69;;;18.48;84.48
72118;BME280;59992;47.490;8.736;2022-07-29T14:59:46;96703.75;;;18.52;84.98
72118;BME280;59992;47.490;8.736;2022-07-29T15:02:35;96707.79;;;18.49;84.08
72118;BME280;59992;47.490;8.736;2022-07-29T15:05:24;96709.53;;;18.51;84.94
72118;BME280;59992;47.490;8.736;2022-07-29T15:08:12;96716.30;;;18.54;85.87